Time;durP1;ratioP1;P1;durP2;ratioP2;P2;SDS_P1;SDS_P2;PMS_P1;PMS_P2;Temp;Humidity;BMP_temperature;BMP_pressure;BME280_temperature;BME280_humidity;BME280_pressure;Samples;Min_cycle;Max_cycle;Signal;HPM_P1;HPM_P2
2021/10/21 00:00:55;;;;;;;5.95;5.32;;;14.80;96.70;;;;;;5103061;27;20065;-84
2021/10/21 00:03:24;;;;;;;7.03;5.20;;;14.80;96.70;;;;;;5101879;27;20035;-84
2021/10/21 00:05:52;;;;;;;7.53;5.10;;;14.90;96.70;;;;;;5121544;27;20402;-84
2021/10/21 00:08:21;;;;;;;6.40;5.22;;;14.90;96.70;;;;;;5122014;27;20027;-84
2021/10/21 00:10:51;;;;;;;5.50;4.65;;;14.90;96.70;;;;;;5119060;27;20154;-84
2021/10/21 00:13:19;;;;;;;6.15;5.28;;;14.80;96.70;;;;;;5122955;27;20039;-85
2021/10/21 00:15:47;;;;;;;7.78;4.43;;;14.80;96.70;;;;;;5102685;27;20460;-84
2021/10/21 00:18:15;;;;;;;5.43;4.50;;;14.90;96.70;;;;;;5103204;27;20564;-85
2021/10/21 00:20:43;;;;;;;6.03;4.55;;;14.90;96.70;;;;;;5118167;27;20808;-84
2021/10/21 00:23:11;;;;;;;6.32;4.70;;;14.90;96.70;;;;;;5120348;27;20048;-85
2021/10/21 00:25:41;;;;;;;4.70;3.92;;;14.90;96.70;;;;;;5103283;27;20062;-84
2021/10/21 00:28:11;;;;;;;4.85;4.35;;;14.90;96.70;;;;;;5116670;27;20188;-84
2021/10/21 00:30:39;;;;;;;5.05;3.95;;;14.90;96.70;;;;;;5104282;27;20522;-84
2021/10/21 00:33:07;;;;;;;4.85;3.75;;;15.00;96.70;;;;;;5106362;27;20063;-84
2021/10/21 00:35:35;;;;;;;4.95;4.25;;;15.00;96.70;;;;;;5086734;27;20203;-85
2021/10/21 00:38:04;;;;;;;4.95;3.90;;;15.00;96.70;;;;;;5103412;27;20055;-84
2021/10/21 00:40:32;;;;;;;5.45;3.97;;;15.00;96.70;;;;;;5100515;27;20043;-85
2021/10/21 00:43:01;;;;;;;4.03;3.58;;;15.00;96.70;;;;;;5123568;27;20111;-84
2021/10/21 00:45:30;;;;;;;4.47;3.75;;;15.00;96.70;;;;;;5103095;27;20039;-85
2021/10/21 00:47:58;;;;;;;4.90;3.20;;;15.00;96.70;;;;;;5104698;27;20904;-85
2021/10/21 00:50:27;;;;;;;4.63;3.78;;;15.00;96.70;;;;;;5114639;27;20139;-84
2021/10/21 00:52:55;;;;;;;4.53;3.97;;;14.90;96.70;;;;;;5122529;27;20038;-84
2021/10/21 00:55:24;;;;;;;4.85;3.88;;;14.90;96.70;;;;;;5101408;27;20214;-84
2021/10/21 00:57:53;;;;;;;7.57;4.43;;;14.90;96.70;;;;;;5102703;28;20190;-82
2021/10/21 01:00:22;;;;;;;5.22;4.68;;;14.90;96.70;;;;;;5104026;27;20039;-85
2021/10/21 01:02:50;;;;;;;6.32;5.13;;;14.80;96.70;;;;;;5096914;28;20732;-85
2021/10/21 01:05:18;;;;;;;5.55;4.10;;;14.70;96.70;;;;;;5118454;27;20046;-84
2021/10/21 01:07:47;;;;;;;5.38;4.43;;;14.80;96.70;;;;;;5118510;27;20035;-84
2021/10/21 01:10:15;;;;;;;5.63;5.00;;;14.80;96.70;;;;;;5101878;28;20093;-84
2021/10/21 01:12:43;;;;;;;5.32;4.13;;;14.80;96.70;;;;;;5119302;28;20513;-85
2021/10/21 01:15:17;;;;;;;4.88;4.28;;;14.80;96.70;;;;;;5089131;28;20053;-84
2021/10/21 01:17:47;;;;;;;5.38;4.57;;;14.90;96.70;;;;;;5119940;27;20043;-84
2021/10/21 01:20:17;;;;;;;5.05;3.78;;;14.90;96.70;;;;;;5127061;27;20035;-85
2021/10/21 01:22:46;;;;;;;4.60;3.50;;;14.90;96.70;;;;;;5107843;27;20043;-85
2021/10/21 01:25:15;;;;;;;4.85;4.05;;;14.90;96.70;;;;;;5109901;27;20046;-84
2021/10/21 01:27:45;;;;;;;5.35;4.15;;;14.90;96.70;;;;;;5101972;27;20225;-85
2021/10/21 01:30:18;;;;;;;4.00;3.50;;;14.90;96.70;;;;;;5108854;27;20104;-84
2021/10/21 01:32:46;;;;;;;3.90;3.50;;;14.90;96.70;;;;;;5105908;27;20129;-84
2021/10/21 01:35:16;;;;;;;3.70;3.25;;;15.00;96.70;;;;;;5091215;27;20302;-85
2021/10/21 01:37:46;;;;;;;5.70;3.83;;;15.00;96.70;;;;;;5103873;27;20076;-85
2021/10/21 01:40:16;;;;;;;5.30;3.92;;;15.00;96.70;;;;;;5126289;27;20046;-85
2021/10/21 01:42:44;;;;;;;3.80;3.20;;;15.00;96.70;;;;;;5123928;27;20050;-85
2021/10/21 01:45:18;;;;;;;5.80;4.10;;;15.00;96.70;;;;;;5126228;27;20035;-84
2021/10/21 01:47:46;;;;;;;4.10;3.65;;;15.00;96.70;;;;;;5104134;27;20071;-84
2021/10/21 01:50:17;;;;;;;4.88;4.00;;;15.00;96.70;;;;;;5108857;27;20126;-85
2021/10/21 01:52:46;;;;;;;5.43;3.78;;;15.00;96.70;;;;;;5107356;27;20043;-84
2021/10/21 01:55:16;;;;;;;5.30;3.42;;;15.00;96.70;;;;;;5090352;27;20449;-81
2021/10/21 01:57:45;;;;;;;4.25;2.97;;;15.00;96.70;;;;;;5086946;27;20036;-82
2021/10/21 02:00:16;;;;;;;5.55;3.40;;;14.90;96.70;;;;;;5089251;27;20043;-82
2021/10/21 02:02:45;;;;;;;4.85;3.58;;;14.90;96.70;;;;;;5105198;27;20051;-82
2021/10/21 02:05:14;;;;;;;3.17;2.85;;;14.80;96.70;;;;;;5104218;27;20039;-82
2021/10/21 02:07:45;;;;;;;4.30;3.30;;;14.80;96.70;;;;;;5100199;27;20046;-85
2021/10/21 02:10:17;;;;;;;4.65;3.22;;;14.80;96.70;;;;;;5087418;27;20092;-82
2021/10/21 02:12:45;;;;;;;4.47;3.17;;;14.70;96.70;;;;;;5103484;27;20057;-82
2021/10/21 02:15:13;;;;;;;4.32;3.33;;;14.70;96.70;;;;;;5092382;27;20049;-82
2021/10/21 02:17:42;;;;;;;5.75;3.20;;;14.60;96.70;;;;;;5106481;27;20062;-82
2021/10/21 02:20:11;;;;;;;3.08;2.53;;;14.60;96.70;;;;;;5120905;27;20040;-82
2021/10/21 02:22:40;;;;;;;2.95;2.60;;;14.60;96.70;;;;;;5124441;27;20043;-82
2021/10/21 02:25:12;;;;;;;3.88;2.55;;;14.70;96.70;;;;;;5104315;27;20054;-81
2021/10/21 02:27:40;;;;;;;5.95;3.05;;;14.60;96.70;;;;;;5125052;27;20066;-82
2021/10/21 02:30:10;;;;;;;3.85;2.53;;;14.60;96.70;;;;;;5103683;27;20039;-82
2021/10/21 02:32:38;;;;;;;4.47;2.40;;;14.60;96.70;;;;;;5088137;27;20055;-82
2021/10/21 02:35:08;;;;;;;3.92;2.60;;;14.60;96.70;;;;;;5104872;27;20039;-82
2021/10/21 02:37:37;;;;;;;3.65;2.90;;;14.60;96.70;;;;;;5124046;27;20130;-81
2021/10/21 02:40:08;;;;;;;3.88;2.85;;;14.60;96.70;;;;;;5105085;27;20066;-81
2021/10/21 02:42:38;;;;;;;3.58;2.47;;;14.50;96.70;;;;;;5105137;27;20039;-82
2021/10/21 02:45:07;;;;;;;3.63;2.80;;;14.40;96.70;;;;;;5101072;27;20516;-81
2021/10/21 02:47:35;;;;;;;4.15;2.80;;;14.40;96.70;;;;;;5104092;27;20134;-81
2021/10/21 02:50:04;;;;;;;4.03;2.85;;;14.40;96.70;;;;;;5103525;27;20128;-81
2021/10/21 02:52:32;;;;;;;4.13;2.90;;;14.30;96.70;;;;;;5085023;27;20525;-81
2021/10/21 02:55:00;;;;;;;3.22;2.72;;;14.30;96.70;;;;;;5085677;27;20142;-82
2021/10/21 02:57:29;;;;;;;5.97;3.15;;;14.30;96.70;;;;;;5089493;28;20055;-81
2021/10/21 02:59:59;;;;;;;3.80;3.17;;;14.30;96.70;;;;;;5100752;27;20038;-82
2021/10/21 03:02:27;;;;;;;4.07;3.10;;;14.30;96.70;;;;;;5104183;27;20706;-81
2021/10/21 03:04:55;;;;;;;3.78;3.38;;;14.30;96.70;;;;;;5099434;27;20142;-81
2021/10/21 03:07:23;;;;;;;4.40;3.08;;;14.40;96.70;;;;;;5094402;27;20038;-81
2021/10/21 03:09:51;;;;;;;4.65;3.42;;;14.40;96.70;;;;;;5122070;27;20511;-81
2021/10/21 03:12:19;;;;;;;3.58;3.05;;;14.30;96.70;;;;;;5104350;27;20045;-82
2021/10/21 03:14:47;;;;;;;4.10;3.00;;;14.20;96.70;;;;;;5123560;27;20039;-82
2021/10/21 03:17:17;;;;;;;4.07;3.28;;;14.20;96.70;;;;;;5091396;27;20043;-81
2021/10/21 03:19:46;;;;;;;5.20;3.78;;;14.20;96.70;;;;;;5095728;27;20078;-81
2021/10/21 03:22:15;;;;;;;4.13;3.30;;;14.20;96.70;;;;;;5086700;27;20063;-82
2021/10/21 03:24:43;;;;;;;3.83;3.42;;;14.20;96.70;;;;;;5119605;27;20235;-81
2021/10/21 03:27:12;;;;;;;4.47;3.45;;;14.20;96.70;;;;;;5104018;27;20046;-82
2021/10/21 03:29:40;;;;;;;4.07;3.03;;;14.20;96.70;;;;;;5104043;27;20063;-82
2021/10/21 03:32:08;;;;;;;4.43;3.40;;;14.20;96.70;;;;;;5103692;27;20134;-81
2021/10/21 03:34:37;;;;;;;4.82;3.20;;;14.20;96.70;;;;;;5088747;27;20488;-82
2021/10/21 03:37:05;;;;;;;4.07;3.22;;;14.30;96.70;;;;;;5120023;27;20087;-81
2021/10/21 03:39:35;;;;;;;3.67;3.28;;;14.30;96.70;;;;;;5123388;27;20202;-82
2021/10/21 03:42:04;;;;;;;4.57;3.33;;;14.30;96.70;;;;;;5103235;27;20039;-82
2021/10/21 03:44:32;;;;;;;4.25;3.75;;;14.40;96.70;;;;;;5102565;27;20057;-82
2021/10/21 03:47:00;;;;;;;4.85;3.53;;;14.40;96.70;;;;;;5102158;27;20031;-82
2021/10/21 03:49:29;;;;;;;5.45;3.92;;;14.40;96.70;;;;;;5119955;27;20127;-82
2021/10/21 03:51:59;;;;;;;4.63;3.42;;;14.40;96.70;;;;;;5118448;27;20044;-82
2021/10/21 03:54:27;;;;;;;3.95;3.55;;;14.40;96.70;;;;;;5112941;27;20128;-82
2021/10/21 03:56:56;;;;;;;5.53;4.00;;;14.40;96.70;;;;;;5101280;27;20027;-82
2021/10/21 03:59:24;;;;;;;5.30;4.55;;;14.40;96.70;;;;;;5103462;27;20142;-82
2021/10/21 04:01:53;;;;;;;5.03;4.30;;;14.50;96.70;;;;;;5101271;27;20134;-82
2021/10/21 04:04:22;;;;;;;3.92;3.63;;;14.50;96.70;;;;;;5102352;27;20076;-82
2021/10/21 04:06:54;;;;;;;5.57;4.03;;;14.50;96.70;;;;;;5097855;28;20204;-81
2021/10/21 04:09:23;;;;;;;5.72;3.80;;;14.60;96.70;;;;;;5103646;27;20074;-82
2021/10/21 04:11:52;;;;;;;6.32;4.60;;;14.60;96.70;;;;;;5118706;27;20040;-82
2021/10/21 04:14:20;;;;;;;6.45;4.10;;;14.60;96.70;;;;;;5104953;27;20063;-81
2021/10/21 04:16:48;;;;;;;5.00;4.10;;;14.50;96.70;;;;;;5099937;27;20110;-80
2021/10/21 04:19:16;;;;;;;4.65;3.60;;;14.50;96.70;;;;;;5103052;27;20043;-82
2021/10/21 04:21:45;;;;;;;5.80;4.40;;;14.40;96.70;;;;;;5085508;27;20047;-81
2021/10/21 04:24:13;;;;;;;6.10;3.92;;;14.40;96.70;;;;;;5104429;27;20411;-82
2021/10/21 04:26:43;;;;;;;4.05;3.60;;;14.40;96.70;;;;;;5112872;27;20062;-82
2021/10/21 04:29:11;;;;;;;5.22;3.90;;;14.40;96.70;;;;;;5098469;27;20406;-82
2021/10/21 04:31:39;;;;;;;4.28;3.75;;;14.40;96.70;;;;;;5101265;27;20039;-81
2021/10/21 04:34:07;;;;;;;5.53;3.67;;;14.40;96.70;;;;;;5083676;27;20507;-82
2021/10/21 04:36:36;;;;;;;5.50;3.83;;;14.50;96.70;;;;;;5117518;27;20131;-82
2021/10/21 04:39:07;;;;;;;5.22;3.63;;;14.50;96.70;;;;;;5121912;27;20043;-82
2021/10/21 04:41:35;;;;;;;6.05;3.47;;;14.50;96.70;;;;;;5102959;27;20043;-85
2021/10/21 04:44:05;;;;;;;5.95;3.20;;;14.60;96.70;;;;;;5102630;27;20063;-84
2021/10/21 04:46:34;;;;;;;4.85;3.15;;;14.70;96.70;;;;;;5121415;27;20587;-85
2021/10/21 04:49:04;;;;;;;5.63;4.32;;;14.70;96.70;;;;;;5112924;27;20047;-83
2021/10/21 04:51:32;;;;;;;4.20;3.45;;;14.80;96.70;;;;;;5117933;27;20069;-82
2021/10/21 04:54:00;;;;;;;5.57;3.72;;;14.80;96.70;;;;;;5099861;28;20031;-82
2021/10/21 04:56:28;;;;;;;4.32;3.60;;;14.90;96.70;;;;;;5114915;27;20556;-82
2021/10/21 04:58:57;;;;;;;4.43;3.63;;;15.00;96.70;;;;;;5100493;27;20035;-82
2021/10/21 05:01:26;;;;;;;4.03;3.25;;;15.00;96.70;;;;;;5103327;27;20043;-82
2021/10/21 05:03:56;;;;;;;3.90;3.50;;;15.00;96.70;;;;;;5084230;27;20133;-82
2021/10/21 05:06:24;;;;;;;4.47;3.70;;;15.00;96.70;;;;;;5100800;27;20577;-82
2021/10/21 05:08:52;;;;;;;8.23;4.18;;;15.10;96.70;;;;;;5100715;28;20077;-82
2021/10/21 05:11:21;;;;;;;4.15;3.53;;;15.00;96.70;;;;;;5100812;27;20039;-82
2021/10/21 05:13:49;;;;;;;4.72;3.78;;;15.00;96.70;;;;;;5086265;28;20027;-82
2021/10/21 05:16:17;;;;;;;5.57;3.70;;;15.00;96.70;;;;;;5087310;28;20614;-82
2021/10/21 05:18:47;;;;;;;6.38;3.50;;;15.10;96.70;;;;;;5099956;28;20046;-82
2021/10/21 05:21:15;;;;;;;6.78;3.65;;;15.20;96.70;;;;;;5118787;27;20051;-81
2021/10/21 05:23:43;;;;;;;3.95;3.45;;;15.20;96.70;;;;;;5121088;28;20127;-82
2021/10/21 05:26:12;;;;;;;7.72;4.32;;;15.20;96.70;;;;;;5122568;28;20757;-82
2021/10/21 05:28:40;;;;;;;5.70;3.67;;;15.20;96.70;;;;;;5101632;28;20101;-82
2021/10/21 05:31:08;;;;;;;4.75;3.58;;;15.20;96.70;;;;;;5102623;28;20627;-82
2021/10/21 05:33:36;;;;;;;4.70;3.92;;;15.20;96.70;;;;;;5101157;28;20038;-82
2021/10/21 05:36:06;;;;;;;5.60;3.80;;;15.30;96.70;;;;;;5115177;28;20059;-82
2021/10/21 05:38:35;;;;;;;4.53;3.67;;;15.20;96.70;;;;;;5083947;28;20716;-82
2021/10/21 05:41:03;;;;;;;5.05;3.75;;;15.30;96.70;;;;;;5115640;28;20038;-82
2021/10/21 05:43:31;;;;;;;5.68;3.33;;;15.30;96.70;;;;;;5095684;28;20051;-82
2021/10/21 05:45:59;;;;;;;4.80;3.67;;;15.30;96.70;;;;;;5087052;28;20043;-82
2021/10/21 05:48:28;;;;;;;5.80;3.53;;;15.30;96.70;;;;;;5083996;28;20071;-80
2021/10/21 05:50:57;;;;;;;5.90;3.70;;;15.40;96.70;;;;;;5085372;28;20677;-80
2021/10/21 05:53:27;;;;;;;6.65;3.47;;;15.40;96.70;;;;;;5116751;28;20043;-81
2021/10/21 05:55:55;;;;;;;6.18;3.55;;;15.40;96.70;;;;;;5096039;28;20055;-78
2021/10/21 05:58:24;;;;;;;4.88;3.10;;;15.30;96.70;;;;;;5099203;28;20062;-79
2021/10/21 06:00:52;;;;;;;4.57;3.03;;;15.30;96.70;;;;;;5082956;28;20049;-79
2021/10/21 06:03:21;;;;;;;4.22;3.13;;;15.30;96.70;;;;;;5118456;28;20043;-77
2021/10/21 06:05:49;;;;;;;6.47;3.20;;;15.30;96.70;;;;;;5100279;27;20043;-76
2021/10/21 06:08:18;;;;;;;5.88;3.10;;;15.30;96.70;;;;;;5104966;27;20043;-78
2021/10/21 06:10:48;;;;;;;5.97;3.25;;;15.30;96.70;;;;;;5091143;27;20415;-78
2021/10/21 06:13:16;;;;;;;8.10;3.90;;;15.30;96.70;;;;;;5103980;27;20047;-83
2021/10/21 06:15:47;;;;;;;5.80;3.83;;;15.30;96.70;;;;;;5106678;27;20379;-83
2021/10/21 06:18:15;;;;;;;7.15;4.80;;;15.30;96.70;;;;;;5123359;27;20048;-84
2021/10/21 06:20:44;;;;;;;7.35;4.85;;;15.30;96.70;;;;;;5101987;27;20081;-84
2021/10/21 06:23:13;;;;;;;7.63;4.88;;;15.30;96.70;;;;;;5124238;27;20114;-82
2021/10/21 06:25:43;;;;;;;10.48;7.22;;;15.30;96.70;;;;;;5104354;27;20074;-81
2021/10/21 06:28:15;;;;;;;8.95;7.70;;;15.30;96.70;;;;;;5105606;27;20042;-80
2021/10/21 06:30:46;;;;;;;11.57;8.05;;;15.30;96.70;;;;;;5089416;27;20216;-80
2021/10/21 06:33:15;;;;;;;14.48;7.90;;;15.30;96.70;;;;;;5105925;27;20051;-80
2021/10/21 06:35:45;;;;;;;9.32;7.10;;;15.30;96.70;;;;;;5088257;27;20567;-80
2021/10/21 06:38:15;;;;;;;8.95;6.68;;;15.30;96.70;;;;;;5104941;27;20047;-80
2021/10/21 06:40:43;;;;;;;8.25;6.93;;;15.30;96.70;;;;;;5085846;27;20447;-80
2021/10/21 06:43:11;;;;;;;7.78;6.22;;;15.20;96.70;;;;;;5124793;27;20446;-80
2021/10/21 06:45:40;;;;;;;7.88;5.72;;;15.30;96.70;;;;;;5121376;27;20511;-80
2021/10/21 06:48:09;;;;;;;6.95;5.38;;;15.20;96.70;;;;;;5104360;27;20039;-81
2021/10/21 06:50:36;;;;;;;5.90;4.88;;;15.20;96.70;;;;;;5119076;27;20035;-80
2021/10/21 06:53:04;;;;;;;10.82;5.55;;;15.30;96.70;;;;;;5105771;27;20079;-80
2021/10/21 06:55:32;;;;;;;6.53;4.60;;;15.30;96.70;;;;;;5091664;27;20035;-81
2021/10/21 06:58:01;;;;;;;5.72;4.45;;;15.30;96.70;;;;;;5120858;27;20133;-80
2021/10/21 07:00:35;;;;;;;7.90;4.75;;;15.30;96.70;;;;;;5108928;27;20779;-80
2021/10/21 07:03:05;;;;;;;5.85;4.10;;;15.30;96.70;;;;;;5072009;27;20043;-80
2021/10/21 07:05:39;;;;;;;9.48;4.40;;;15.30;96.70;;;;;;5079777;27;20582;-80
2021/10/21 07:08:07;;;;;;;7.82;4.03;;;15.30;96.70;;;;;;5085929;27;20051;-80
2021/10/21 07:10:35;;;;;;;7.72;4.80;;;15.30;96.70;;;;;;5103596;27;20043;-81
2021/10/21 07:13:04;;;;;;;4.38;3.90;;;15.30;96.70;;;;;;5086365;27;20039;-81
2021/10/21 07:15:33;;;;;;;6.30;4.35;;;15.40;96.70;;;;;;5121812;27;20409;-81
2021/10/21 07:18:02;;;;;;;5.90;4.00;;;15.40;96.70;;;;;;5085760;27;20614;-81
2021/10/21 07:20:31;;;;;;;7.47;4.13;;;15.50;96.70;;;;;;5101679;27;20523;-81
2021/10/21 07:22:59;;;;;;;6.13;4.20;;;15.50;96.70;;;;;;5119558;27;20553;-80
2021/10/21 07:25:28;;;;;;;4.75;4.22;;;15.50;96.70;;;;;;5106433;27;20492;-81
2021/10/21 07:27:56;;;;;;;8.00;4.30;;;15.60;96.70;;;;;;5119337;27;20066;-80
2021/10/21 07:30:28;;;;;;;5.70;4.60;;;15.60;96.70;;;;;;5122576;27;20122;-80
2021/10/21 07:33:00;;;;;;;8.25;5.72;;;15.70;96.70;;;;;;5103985;27;20323;-81
2021/10/21 07:35:31;;;;;;;10.65;6.82;;;15.70;96.70;;;;;;5102738;27;20050;-81
2021/10/21 07:38:01;;;;;;;7.82;5.50;;;15.70;96.70;;;;;;5085700;27;20213;-80
2021/10/21 07:40:29;;;;;;;8.60;6.50;;;15.70;96.70;;;;;;5104412;27;20462;-81
2021/10/21 07:42:57;;;;;;;9.50;6.20;;;15.70;96.70;;;;;;5100866;27;20468;-80
2021/10/21 07:45:25;;;;;;;8.85;6.05;;;15.70;96.70;;;;;;5119069;27;20040;-81
2021/10/21 07:47:58;;;;;;;7.55;5.90;;;15.70;96.70;;;;;;5103074;27;20122;-81
2021/10/21 07:50:26;;;;;;;8.65;6.80;;;15.70;96.70;;;;;;5089186;27;20403;-80
2021/10/21 07:52:54;;;;;;;8.88;6.75;;;15.70;96.70;;;;;;5120275;27;20062;-81
2021/10/21 07:55:26;;;;;;;8.52;6.35;;;15.70;96.70;;;;;;5104223;27;20043;-80
2021/10/21 07:57:54;;;;;;;7.65;6.00;;;15.70;96.70;;;;;;5101231;27;20089;-81
2021/10/21 08:00:23;;;;;;;10.93;6.18;;;15.80;96.70;;;;;;5101763;27;20035;-81
2021/10/21 08:02:51;;;;;;;7.85;6.20;;;15.80;96.70;;;;;;5102665;27;20046;-81
2021/10/21 08:05:20;;;;;;;9.63;7.10;;;15.80;96.70;;;;;;5086792;27;20509;-81
2021/10/21 08:07:48;;;;;;;9.57;6.68;;;15.80;96.70;;;;;;5115098;27;20039;-81
2021/10/21 08:10:23;;;;;;;9.80;6.57;;;15.80;96.70;;;;;;5103386;27;20043;-79
2021/10/21 08:12:53;;;;;;;9.43;7.07;;;15.80;96.70;;;;;;5099870;27;20084;-81
2021/10/21 08:15:22;;;;;;;8.93;6.80;;;15.70;96.70;;;;;;5122122;27;20055;-80
2021/10/21 08:17:50;;;;;;;9.85;7.05;;;15.80;96.70;;;;;;5087686;27;20043;-80
2021/10/21 08:20:18;;;;;;;11.60;7.38;;;15.80;96.70;;;;;;5075439;27;20039;-80
2021/10/21 08:22:47;;;;;;;8.98;7.70;;;15.80;96.70;;;;;;5080015;28;20405;-80
2021/10/21 08:25:17;;;;;;;10.45;7.13;;;15.80;96.70;;;;;;5085884;28;20221;-83
2021/10/21 08:27:45;;;;;;;15.45;8.02;;;15.80;96.70;;;;;;5120329;27;20036;-82
2021/10/21 08:30:18;;;;;;;10.85;7.07;;;15.80;96.70;;;;;;5121626;27;20086;-83
2021/10/21 08:32:47;;;;;;;10.23;7.32;;;15.80;96.70;;;;;;5122972;27;20129;-82
2021/10/21 08:35:15;;;;;;;10.30;7.65;;;15.80;96.70;;;;;;5115586;27;20059;-82
2021/10/21 08:37:45;;;;;;;10.90;7.38;;;15.80;96.70;;;;;;5121899;27;20047;-82
2021/10/21 08:40:14;;;;;;;8.88;6.93;;;15.80;96.70;;;;;;5121923;27;20076;-83
2021/10/21 08:42:44;;;;;;;9.82;6.57;;;15.80;96.70;;;;;;5105859;27;20092;-83
2021/10/21 08:45:12;;;;;;;8.77;6.78;;;15.70;96.70;;;;;;5088699;27;20529;-83
2021/10/21 08:47:45;;;;;;;8.77;6.43;;;15.70;96.70;;;;;;5123243;27;20039;-83
2021/10/21 08:50:15;;;;;;;8.13;6.05;;;15.70;96.70;;;;;;5088157;27;20145;-83
2021/10/21 08:52:44;;;;;;;8.27;6.63;;;15.70;96.70;;;;;;5123564;27;20050;-83
2021/10/21 08:55:14;;;;;;;8.88;6.57;;;15.80;96.70;;;;;;5121494;27;20040;-83
2021/10/21 08:57:43;;;;;;;13.65;8.18;;;15.80;96.70;;;;;;5122417;27;20031;-83
2021/10/21 09:00:13;;;;;;;10.07;8.10;;;15.90;96.70;;;;;;5103656;28;20130;-83
2021/10/21 09:02:50;;;;;;;9.82;7.85;;;15.90;96.70;;;;;;5104275;27;20046;-83
2021/10/21 09:05:27;;;;;;;12.10;7.88;;;15.90;96.70;;;;;;5112504;27;20518;-82
2021/10/21 09:08:06;;;;;;;;;;;15.90;96.70;;;;;;5087097;28;20127;-82
2021/10/21 09:10:47;;;;;;;10.40;8.43;;;16.00;96.70;;;;;;5113164;27;19966;-82
2021/10/21 09:13:20;;;;;;;12.20;9.38;;;16.00;96.70;;;;;;5095834;27;20453;-83
2021/10/21 09:15:50;;;;;;;12.43;10.23;;;16.10;96.70;;;;;;5086094;28;20468;-83
2021/10/21 09:18:20;;;;;;;11.23;10.07;;;16.20;96.70;;;;;;5101301;28;20036;-83
2021/10/21 09:20:49;;;;;;;14.85;11.18;;;16.30;96.70;;;;;;5086596;28;20066;-83
2021/10/21 09:23:19;;;;;;;12.63;10.55;;;16.30;96.70;;;;;;5121066;28;20417;-81
2021/10/21 09:25:47;;;;;;;14.05;11.55;;;16.40;96.70;;;;;;5102596;28;20047;-81
2021/10/21 09:28:21;;;;;;;15.05;13.00;;;16.60;96.70;;;;;;5093700;28;20047;-81
2021/10/21 09:30:52;;;;;;;15.15;13.60;;;16.70;96.70;;;;;;5121368;28;20054;-81
2021/10/21 09:33:23;;;;;;;12.93;11.57;;;16.80;96.70;;;;;;5118013;28;20050;-81
2021/10/21 09:35:57;;;;;;;11.13;9.98;;;16.80;96.70;;;;;;5104154;28;20035;-80
2021/10/21 09:38:28;;;;;;;13.18;9.80;;;16.80;96.70;;;;;;5099091;28;20032;-81
2021/10/21 09:41:03;;;;;;;10.68;8.38;;;16.80;96.70;;;;;;5101743;27;20472;-81
2021/10/21 09:43:32;;;;;;;9.77;7.47;;;16.80;96.70;;;;;;5107851;27;20512;-83
2021/10/21 09:46:02;;;;;;;12.07;7.47;;;16.90;96.70;;;;;;5088682;27;20054;-84
2021/10/21 09:48:32;;;;;;;7.63;6.90;;;17.00;96.70;;;;;;5107257;27;20047;-85
2021/10/21 09:51:01;;;;;;;8.38;6.65;;;17.10;96.70;;;;;;5127364;27;20067;-84
2021/10/21 09:53:31;;;;;;;8.02;6.75;;;17.20;96.70;;;;;;5112374;27;20122;-83
2021/10/21 09:56:07;;;;;;;9.55;6.20;;;17.20;96.70;;;;;;5108323;27;20120;-84
2021/10/21 09:58:37;;;;;;;8.68;6.90;;;17.30;96.70;;;;;;5104269;27;20062;-83
2021/10/21 10:01:07;;;;;;;9.93;6.50;;;17.30;96.70;;;;;;5090322;27;20055;-83
2021/10/21 10:03:39;;;;;;;6.78;6.10;;;17.30;96.70;;;;;;5121776;27;20043;-83
2021/10/21 10:06:08;;;;;;;8.43;6.25;;;17.30;96.70;;;;;;5126170;27;20043;-84
2021/10/21 10:08:36;;;;;;;7.95;6.10;;;17.30;96.70;;;;;;5106304;27;20047;-83
2021/10/21 10:11:09;;;;;;;7.53;6.38;;;17.30;96.70;;;;;;5103242;27;20096;-84
2021/10/21 10:13:39;;;;;;;8.70;6.68;;;17.20;96.70;;;;;;5103734;27;20046;-82
2021/10/21 10:16:07;;;;;;;7.88;6.40;;;17.20;96.70;;;;;;5125913;27;20043;-83
2021/10/21 10:18:42;;;;;;;7.97;6.45;;;17.10;96.70;;;;;;5126708;27;20066;-83
2021/10/21 10:21:16;;;;;;;8.35;6.03;;;17.10;96.70;;;;;;5088943;27;20047;-83
2021/10/21 10:23:51;;;;;;;8.30;5.50;;;17.00;96.70;;;;;;5106143;27;20043;-82
2021/10/21 10:26:42;;;;;;;6.28;5.57;;;17.00;96.70;;;;;;5105106;27;20043;-82
2021/10/21 10:29:13;;;;;;;6.55;5.15;;;17.00;96.70;;;;;;5104630;27;20549;-83
2021/10/21 10:31:43;;;;;;;7.80;5.68;;;16.90;96.70;;;;;;5104607;27;20039;-83
2021/10/21 10:34:44;;;;;;;6.22;5.18;;;16.90;96.70;;;;;;5127534;27;20085;-83
2021/10/21 10:37:53;;;;;;;9.75;6.00;;;16.90;96.70;;;;;;5122727;27;20059;-83
2021/10/21 10:40:47;;;;;;;8.32;5.22;;;16.80;96.70;;;;;;5098740;27;20049;-83
2021/10/21 10:43:17;;;;;;;5.90;5.13;;;16.80;96.70;;;;;;5123210;27;20051;-83
2021/10/21 10:46:02;;;;;;;5.70;5.10;;;16.70;96.70;;;;;;5109676;27;20135;-88
2021/10/21 10:48:53;;;;;;;5.43;4.93;;;16.70;96.70;;;;;;5084761;28;20629;-84
2021/10/21 10:51:42;;;;;;;6.50;5.13;;;16.70;96.70;;;;;;5119100;27;20051;-84
2021/10/21 10:54:12;;;;;;;6.72;5.13;;;16.70;96.70;;;;;;5102829;27;20043;-86
2021/10/21 10:56:43;;;;;;;6.22;5.60;;;16.70;96.70;;;;;;5071323;27;20146;-82
2021/10/21 10:59:17;;;;;;;6.30;5.07;;;16.70;96.70;;;;;;5106441;27;20555;-82
2021/10/21 11:01:48;;;;;;;9.73;5.28;;;16.70;96.70;;;;;;5089675;27;20160;-81
2021/10/21 11:04:54;;;;;;;7.55;5.40;;;16.70;96.70;;;;;;5104087;27;20058;-82
2021/10/21 11:07:25;;;;;;;7.65;5.20;;;16.70;96.70;;;;;;5082159;27;20054;-81
2021/10/21 11:10:18;;;;;;;7.28;5.30;;;16.70;96.70;;;;;;5119499;27;20074;-83
2021/10/21 11:12:51;;;;;;;6.45;5.63;;;16.70;96.70;;;;;;5122554;27;20063;-83
2021/10/21 11:15:38;;;;;;;6.63;5.13;;;16.70;96.70;;;;;;5101376;27;20467;-83
2021/10/21 11:18:07;;;;;;;5.65;4.90;;;16.70;96.70;;;;;;5083662;27;20511;-83
2021/10/21 11:20:39;;;;;;;5.28;4.30;;;16.70;96.70;;;;;;5104277;27;20043;-82
2021/10/21 11:23:23;;;;;;;6.35;5.22;;;16.70;96.70;;;;;;5120203;27;20043;-84
2021/10/21 11:25:55;;;;;;;7.68;5.32;;;16.80;96.70;;;;;;5105014;27;20078;-81
2021/10/21 11:28:31;;;;;;;6.93;5.57;;;16.80;96.70;;;;;;5086975;27;20497;-81
2021/10/21 11:31:01;;;;;;;6.20;4.95;;;16.80;96.70;;;;;;5116707;27;20050;-82
2021/10/21 11:33:31;;;;;;;5.38;4.60;;;16.80;96.70;;;;;;5119405;27;20039;-82
2021/10/21 11:36:02;;;;;;;5.40;4.35;;;16.80;96.70;;;;;;5106452;27;20046;-83
2021/10/21 11:38:32;;;;;;;4.68;4.03;;;16.90;96.70;;;;;;5102306;27;20050;-81
2021/10/21 11:41:03;;;;;;;5.90;4.30;;;16.80;96.70;;;;;;5089317;27;20115;-82
2021/10/21 11:43:39;;;;;;;6.18;4.82;;;16.90;96.70;;;;;;5087670;27;20047;-82
2021/10/21 11:46:15;;;;;;;6.32;4.97;;;16.90;96.70;;;;;;5105016;27;20602;-81
2021/10/21 11:48:45;;;;;;;6.10;4.50;;;16.90;96.70;;;;;;5113883;27;20180;-81
2021/10/21 11:51:13;;;;;;;6.38;4.80;;;16.90;96.70;;;;;;5099294;27;20035;-82
2021/10/21 11:53:42;;;;;;;5.68;4.57;;;17.00;96.70;;;;;;5083393;27;20066;-82
2021/10/21 11:56:13;;;;;;;6.72;5.35;;;17.00;96.70;;;;;;5105099;27;20146;-82
2021/10/21 11:58:46;;;;;;;5.03;4.30;;;17.00;96.70;;;;;;5105427;27;20070;-83
2021/10/21 12:01:21;;;;;;;6.03;4.43;;;17.00;96.70;;;;;;5123256;27;20092;-82
2021/10/21 12:03:51;;;;;;;5.68;4.28;;;17.00;96.70;;;;;;5102776;27;20063;-82
2021/10/21 12:06:20;;;;;;;6.10;4.40;;;17.00;96.70;;;;;;5121616;27;20040;-82
2021/10/21 12:08:51;;;;;;;5.40;4.20;;;17.00;96.70;;;;;;5101251;27;20429;-84
2021/10/21 12:11:24;;;;;;;6.05;4.20;;;17.10;96.70;;;;;;5102421;27;20102;-83
2021/10/21 12:14:04;;;;;;;7.47;4.85;;;17.10;96.70;;;;;;5118099;27;20039;-85
2021/10/21 12:16:36;;;;;;;7.45;4.55;;;17.10;96.70;;;;;;5102405;27;20462;-86
2021/10/21 12:19:09;;;;;;;5.90;4.13;;;17.10;96.70;;;;;;5095824;27;20050;-83
2021/10/21 12:21:41;;;;;;;6.93;4.82;;;17.20;96.70;;;;;;5123523;27;20039;-84
2021/10/21 12:24:21;;;;;;;6.28;4.25;;;17.30;96.70;;;;;;5105802;27;20416;-84
2021/10/21 12:26:54;;;;;;;5.18;4.05;;;17.40;96.70;;;;;;5106096;27;20043;-86
2021/10/21 12:29:29;;;;;;;6.18;4.00;;;17.50;96.70;;;;;;5123425;27;20133;-86
2021/10/21 12:31:57;;;;;;;6.25;3.92;;;17.60;96.70;;;;;;5101234;27;20039;-86
2021/10/21 12:34:30;;;;;;;4.55;3.72;;;17.70;96.70;;;;;;5105701;27;20039;-86
2021/10/21 12:36:59;;;;;;;4.20;3.60;;;17.80;96.70;;;;;;5121639;27;20473;-87
2021/10/21 12:39:30;;;;;;;6.60;4.20;;;18.00;96.70;;;;;;5105863;27;20039;-86
2021/10/21 12:42:02;;;;;;;5.90;4.00;;;18.00;96.70;;;;;;5106117;27;20137;-87
2021/10/21 12:44:33;;;;;;;6.65;4.30;;;18.10;96.70;;;;;;5081913;27;20548;-86
2021/10/21 12:47:16;;;;;;;5.03;4.00;;;18.10;96.70;;;;;;5090072;27;20408;-86
2021/10/21 12:49:53;;;;;;;6.50;4.30;;;18.10;96.70;;;;;;5086915;28;20067;-85
2021/10/21 12:52:25;;;;;;;7.50;4.85;;;18.00;96.70;;;;;;5104222;27;20038;-85
2021/10/21 12:55:08;;;;;;;8.25;4.45;;;18.00;96.70;;;;;;5103891;27;20035;-86
2021/10/21 12:57:46;;;;;;;6.47;4.15;;;18.00;96.70;;;;;;5106159;27;20140;-86
2021/10/21 13:00:25;;;;;;;10.27;4.25;;;18.00;96.70;;;;;;5089822;27;20035;-83
2021/10/21 13:03:01;;;;;;;7.15;4.38;;;18.10;96.70;;;;;;5123189;27;20191;-84